Time;durP1;ratioP1;P1;durP2;ratioP2;P2;SDS_P1;SDS_P2;PMS_P1;PMS_P2;Temp;Humidity;BMP_temperature;BMP_pressure;BME280_temperature;BME280_humidity;BME280_pressure;Samples;Min_cycle;Max_cycle;Signal;HPM_P1;HPM_P2
2022/09/16 00:00:34;;;;;;;14.30;9.07;;;13.10;99.90;;;;;;4973769;28;20120;-56
2022/09/16 00:03:02;;;;;;;10.38;6.65;;;13.10;99.90;;;;;;4959851;28;20168;-56
2022/09/16 00:05:29;;;;;;;9.18;7.57;;;13.10;99.90;;;;;;4970987;28;20300;-56
2022/09/16 00:07:56;;;;;;;7.43;6.20;;;13.10;99.90;;;;;;4975178;28;20041;-56
2022/09/16 00:10:22;;;;;;;11.88;8.07;;;13.10;99.90;;;;;;4979442;28;20044;-54
2022/09/16 00:12:50;;;;;;;8.52;6.43;;;13.10;99.90;;;;;;4978670;28;20148;-55
2022/09/16 00:15:17;;;;;;;9.18;7.20;;;13.10;99.90;;;;;;4980014;28;20218;-56
2022/09/16 00:17:44;;;;;;;6.70;5.97;;;13.10;99.90;;;;;;4972496;28;20033;-56
2022/09/16 00:20:12;;;;;;;11.20;7.75;;;13.10;99.90;;;;;;4977823;28;20055;-56
2022/09/16 00:22:39;;;;;;;8.98;6.65;;;13.10;99.90;;;;;;4977536;28;20049;-56
2022/09/16 00:25:06;;;;;;;8.95;6.43;;;13.10;99.90;;;;;;4968755;28;20119;-54
2022/09/16 00:27:33;;;;;;;10.45;7.75;;;13.20;99.90;;;;;;4975651;28;20041;-56
2022/09/16 00:30:00;;;;;;;7.53;6.63;;;13.10;99.90;;;;;;4971844;28;20056;-55
2022/09/16 00:32:27;;;;;;;;;;;13.20;99.90;;;;;;4978873;28;20037;-56
2022/09/16 00:34:53;;;;;;;9.48;6.68;;;13.20;99.90;;;;;;4975417;28;19931;-56
2022/09/16 00:37:20;;;;;;;12.45;7.60;;;13.20;99.90;;;;;;4974242;28;20037;-55
2022/09/16 00:39:48;;;;;;;9.77;8.77;;;13.20;99.90;;;;;;4972234;28;20624;-55
2022/09/16 00:42:16;;;;;;;12.10;10.65;;;13.20;99.90;;;;;;4977512;28;20038;-56
2022/09/16 00:44:58;;;;;;;9.93;8.50;;;13.20;99.90;;;;;;4967725;28;20049;-56
2022/09/16 00:47:50;;;;;;;9.85;8.73;;;13.20;99.90;;;;;;4972009;28;20051;-56
2022/09/16 00:50:29;;;;;;;12.88;7.65;;;13.10;99.90;;;;;;4974654;28;20552;-56
2022/09/16 00:52:58;;;;;;;11.68;9.20;;;13.10;99.90;;;;;;4964143;28;20156;-56
2022/09/16 00:55:28;;;;;;;13.60;9.88;;;13.20;99.90;;;;;;4973815;28;20455;-56
2022/09/16 00:58:09;;;;;;;12.25;9.35;;;13.10;99.90;;;;;;4973032;28;20447;-55
2022/09/16 01:00:37;;;;;;;14.13;10.15;;;13.10;99.90;;;;;;4977001;28;20187;-56
2022/09/16 01:03:05;;;;;;;13.27;8.40;;;13.10;99.90;;;;;;4962297;28;20202;-56
2022/09/16 01:05:33;;;;;;;10.10;8.43;;;13.10;99.90;;;;;;4971838;28;20842;-56
2022/09/16 01:08:00;;;;;;;12.38;9.52;;;13.10;99.90;;;;;;4971463;28;20056;-56
2022/09/16 01:10:27;;;;;;;9.32;8.13;;;13.00;99.90;;;;;;4974333;28;20578;-55
2022/09/16 01:13:04;;;;;;;9.10;7.78;;;13.00;99.90;;;;;;4972042;28;20050;-56
2022/09/16 01:15:47;;;;;;;9.30;7.15;;;13.00;99.90;;;;;;4970922;28;20410;-56
2022/09/16 01:18:35;;;;;;;8.27;6.57;;;12.90;99.90;;;;;;4972131;28;20071;-56
2022/09/16 01:21:26;;;;;;;7.82;5.78;;;12.90;99.90;;;;;;4968945;28;20221;-56
2022/09/16 01:24:09;;;;;;;7.43;6.38;;;12.90;99.90;;;;;;4986657;28;20308;-56
2022/09/16 01:27:19;;;;;;;6.95;5.50;;;12.90;99.90;;;;;;4975253;28;20041;-57
2022/09/16 01:30:11;;;;;;;6.43;5.82;;;12.90;99.90;;;;;;4975555;28;20562;-56
2022/09/16 01:33:04;;;;;;;8.27;6.30;;;12.90;99.90;;;;;;4973281;28;20123;-56
2022/09/16 01:35:38;;;;;;;9.77;5.40;;;12.90;99.90;;;;;;4975950;28;20044;-56
2022/09/16 01:38:27;;;;;;;6.80;5.63;;;12.90;99.90;;;;;;4972529;28;20774;-56
2022/09/16 01:41:15;;;;;;;10.43;5.97;;;12.90;99.90;;;;;;4973634;28;20543;-56
2022/09/16 01:43:54;;;;;;;9.98;6.25;;;12.90;99.90;;;;;;4969909;28;20386;-57
2022/09/16 01:46:24;;;;;;;9.30;6.00;;;12.80;99.90;;;;;;4951967;28;20179;-56
2022/09/16 01:49:25;;;;;;;8.18;6.03;;;12.80;99.90;;;;;;4975991;28;20789;-55
2022/09/16 01:52:22;;;;;;;5.60;4.88;;;12.80;99.90;;;;;;4956903;28;20379;-54
2022/09/16 01:55:06;;;;;;;6.22;4.43;;;12.70;99.90;;;;;;4963847;28;20033;-56
2022/09/16 01:57:52;;;;;;;5.00;4.22;;;12.70;99.90;;;;;;4950852;28;20466;-56
2022/09/16 02:00:20;;;;;;;5.25;4.05;;;12.60;99.90;;;;;;4968691;28;20341;-56
2022/09/16 02:03:10;;;;;;;8.25;4.35;;;12.70;99.90;;;;;;4975347;28;20041;-55
2022/09/16 02:05:49;;;;;;;7.93;4.30;;;12.60;99.90;;;;;;4976069;28;20364;-56
2022/09/16 02:08:27;;;;;;;5.10;4.28;;;12.60;99.90;;;;;;4973058;28;20113;-56
2022/09/16 02:11:00;;;;;;;4.28;3.85;;;12.70;99.90;;;;;;4975473;28;20798;-56
2022/09/16 02:13:34;;;;;;;4.25;3.85;;;12.70;99.90;;;;;;4972961;28;20329;-55
2022/09/16 02:16:07;;;;;;;5.35;4.05;;;12.60;99.90;;;;;;4976589;28;20680;-56
2022/09/16 02:18:37;;;;;;;6.13;3.97;;;12.60;99.90;;;;;;4972916;28;20047;-56
2022/09/16 02:21:07;;;;;;;4.05;3.53;;;12.60;99.90;;;;;;4970941;28;20846;-54
2022/09/16 02:23:43;;;;;;;7.30;4.35;;;12.60;99.90;;;;;;4975809;28;20105;-56
2022/09/16 02:26:14;;;;;;;5.53;4.15;;;12.60;99.90;;;;;;4976921;28;20037;-56
2022/09/16 02:28:45;;;;;;;4.75;3.83;;;12.60;99.90;;;;;;4973696;28;20352;-55
2022/09/16 02:31:13;;;;;;;5.03;3.67;;;12.60;99.90;;;;;;4972544;28;20184;-56
2022/09/16 02:34:00;;;;;;;4.20;3.50;;;12.60;99.90;;;;;;4965773;28;20152;-55
2022/09/16 02:36:28;;;;;;;4.97;3.70;;;12.60;99.90;;;;;;4971764;28;20342;-56
2022/09/16 02:39:02;;;;;;;4.78;3.90;;;12.70;99.90;;;;;;4977794;28;20121;-55
2022/09/16 02:41:29;;;;;;;4.90;3.33;;;12.70;99.90;;;;;;4964628;28;20040;-54
2022/09/16 02:43:56;;;;;;;;;;;12.60;99.90;;;;;;4972232;28;20057;-55
2022/09/16 02:47:05;;;;;;;7.35;4.45;;;12.60;99.90;;;;;;4975646;28;20589;-56
2022/09/16 02:49:58;;;;;;;5.65;5.03;;;12.70;99.90;;;;;;4932044;28;21052;-55
2022/09/16 02:52:41;;;;;;;5.45;4.35;;;12.60;99.90;;;;;;4968187;28;20050;-55
2022/09/16 02:55:32;;;;;;;4.68;4.20;;;12.60;99.90;;;;;;4974492;28;20606;-56
2022/09/16 02:57:59;;;;;;;10.30;4.75;;;12.60;99.90;;;;;;4972221;28;20791;-55
2022/09/16 03:00:29;;;;;;;7.90;5.60;;;12.60;99.90;;;;;;4972034;28;20856;-55
2022/09/16 03:02:56;;;;;;;10.55;5.30;;;12.60;99.90;;;;;;4968295;28;20475;-56
2022/09/16 03:05:28;;;;;;;7.43;4.40;;;12.60;99.90;;;;;;4965149;28;20037;-61
2022/09/16 03:07:56;;;;;;;4.65;4.18;;;12.50;99.90;;;;;;4979781;28;20182;-55
2022/09/16 03:10:27;;;;;;;4.38;3.97;;;12.50;99.90;;;;;;4990266;28;20146;-53
2022/09/16 03:13:17;;;;;;;5.43;4.57;;;12.50;99.90;;;;;;4977785;28;20037;-54
2022/09/16 03:16:05;;;;;;;5.63;4.45;;;12.50;99.90;;;;;;4979155;28;20048;-54
2022/09/16 03:19:08;;;;;;;5.57;4.35;;;12.50;99.90;;;;;;4976585;28;20041;-53
2022/09/16 03:22:02;;;;;;;5.07;4.47;;;12.50;99.90;;;;;;4974471;28;20079;-53
2022/09/16 03:24:49;;;;;;;5.80;3.72;;;12.50;99.90;;;;;;4978349;28;20045;-54
2022/09/16 03:27:23;;;;;;;5.07;3.63;;;12.50;99.90;;;;;;4970702;28;20042;-54
2022/09/16 03:30:00;;;;;;;10.10;6.70;;;12.50;99.90;;;;;;4971642;28;20175;-54
2022/09/16 03:32:36;;;;;;;7.47;6.68;;;12.50;99.90;;;;;;4973673;28;20111;-54
2022/09/16 03:35:34;;;;;;;6.60;5.90;;;12.40;99.90;;;;;;4976201;28;20045;-55
2022/09/16 03:38:02;;;;;;;7.32;6.00;;;12.40;99.90;;;;;;4976559;28;20135;-55
2022/09/16 03:40:31;;;;;;;5.22;4.72;;;12.40;99.90;;;;;;4975939;28;20042;-55
2022/09/16 03:42:58;;;;;;;6.80;5.90;;;12.40;99.90;;;;;;4970750;28;20041;-55
2022/09/16 03:45:25;;;;;;;6.20;5.55;;;12.30;99.90;;;;;;4974531;28;20551;-54
2022/09/16 03:47:52;;;;;;;6.15;5.55;;;12.30;99.90;;;;;;4978663;28;20148;-54
2022/09/16 03:50:20;;;;;;;5.32;4.80;;;12.30;99.90;;;;;;4969630;28;20292;-55
2022/09/16 03:52:47;;;;;;;4.93;4.43;;;12.30;99.90;;;;;;4970659;28;21020;-53
2022/09/16 03:55:15;;;;;;;10.18;5.50;;;12.30;99.90;;;;;;4972946;28;20554;-54
2022/09/16 03:57:42;;;;;;;5.80;5.20;;;12.30;99.90;;;;;;4974217;28;20203;-55
2022/09/16 04:00:10;;;;;;;7.38;5.30;;;12.30;99.90;;;;;;4972054;28;20033;-55
2022/09/16 04:02:39;;;;;;;5.93;4.95;;;12.30;99.90;;;;;;4990904;28;20038;-54
2022/09/16 04:05:07;;;;;;;12.80;6.28;;;12.30;99.90;;;;;;4978303;28;20401;-54
2022/09/16 04:07:35;;;;;;;11.52;6.53;;;12.30;99.90;;;;;;4971852;28;20886;-56
2022/09/16 04:10:04;;;;;;;9.48;6.97;;;12.20;99.90;;;;;;4979068;28;20115;-55
2022/09/16 04:12:31;;;;;;;8.73;6.45;;;12.20;99.90;;;;;;4979279;28;20039;-54
2022/09/16 04:14:58;;;;;;;8.50;6.20;;;12.20;99.90;;;;;;4975746;28;20037;-55
2022/09/16 04:17:29;;;;;;;7.05;4.80;;;12.20;99.90;;;;;;4966951;28;20037;-54
2022/09/16 04:19:56;;;;;;;10.02;6.30;;;12.10;99.90;;;;;;4974116;28;20650;-54
2022/09/16 04:22:23;;;;;;;9.02;6.97;;;12.10;99.90;;;;;;4972685;28;20668;-54
2022/09/16 04:24:50;;;;;;;8.43;6.45;;;12.10;99.90;;;;;;4975639;28;20156;-54
2022/09/16 04:27:18;;;;;;;;;;;12.10;99.90;;;;;;4981371;28;20053;-54
2022/09/16 04:29:45;;;;;;;5.78;4.60;;;12.10;99.90;;;;;;4980537;28;19920;-53
2022/09/16 04:32:12;;;;;;;6.22;5.03;;;12.10;99.90;;;;;;4972209;28;20879;-54
2022/09/16 04:34:39;;;;;;;9.95;6.70;;;12.10;99.90;;;;;;4974348;28;20116;-54
2022/09/16 04:37:06;;;;;;;9.50;6.75;;;12.10;99.90;;;;;;4975392;28;20037;-53
2022/09/16 04:39:33;;;;;;;9.40;5.95;;;12.10;99.90;;;;;;4967179;28;20163;-54
2022/09/16 04:42:00;;;;;;;;;;;12.10;99.90;;;;;;4977040;28;20041;-53
2022/09/16 04:44:29;;;;;;;8.43;6.32;;;12.10;99.90;;;;;;4987981;28;19924;-52
2022/09/16 04:46:55;;;;;;;16.85;7.72;;;12.10;99.90;;;;;;5018473;28;20145;-55
2022/09/16 04:49:23;;;;;;;11.73;6.55;;;12.00;99.90;;;;;;4979075;28;20071;-54
2022/09/16 04:51:51;;;;;;;9.05;6.47;;;12.00;99.90;;;;;;4970375;28;20226;-55
2022/09/16 04:54:18;;;;;;;9.13;6.60;;;12.00;99.90;;;;;;4972024;28;20029;-55
2022/09/16 04:56:45;;;;;;;7.25;6.53;;;12.00;99.90;;;;;;4976466;28;20539;-53
2022/09/16 04:59:12;;;;;;;9.05;6.13;;;12.00;99.90;;;;;;4975117;28;20038;-55
2022/09/16 05:01:40;;;;;;;9.68;5.72;;;12.00;99.90;;;;;;4976205;28;20041;-57
2022/09/16 05:04:10;;;;;;;7.82;6.53;;;12.00;99.90;;;;;;4976678;28;20428;-57
2022/09/16 05:06:39;;;;;;;12.02;7.47;;;12.00;99.90;;;;;;4969026;28;20041;-56
2022/09/16 05:09:08;;;;;;;10.90;6.72;;;12.10;99.90;;;;;;4978607;28;20052;-57
2022/09/16 05:11:37;;;;;;;9.15;7.15;;;12.10;99.90;;;;;;4978031;28;20115;-57
2022/09/16 05:14:15;;;;;;;8.00;7.07;;;12.10;99.90;;;;;;4970300;28;20617;-56
2022/09/16 05:16:43;;;;;;;9.38;6.30;;;12.10;99.90;;;;;;4976068;28;20041;-57
2022/09/16 05:19:12;;;;;;;11.40;7.63;;;12.10;99.90;;;;;;4973555;28;20048;-55
2022/09/16 05:21:39;;;;;;;10.63;6.43;;;12.10;99.90;;;;;;4970411;28;20048;-57
2022/09/16 05:24:09;;;;;;;11.15;7.80;;;12.10;99.90;;;;;;4981864;28;20055;-54
2022/09/16 05:26:38;;;;;;;12.70;7.53;;;12.10;99.90;;;;;;4973786;28;20041;-57
2022/09/16 05:29:09;;;;;;;13.50;6.18;;;12.10;99.90;;;;;;4972637;28;20045;-54
2022/09/16 05:31:38;;;;;;;10.25;8.15;;;12.10;99.90;;;;;;4971841;28;20049;-52
2022/09/16 05:34:17;;;;;;;8.10;6.95;;;12.20;99.90;;;;;;4978090;28;20041;-56
2022/09/16 05:36:46;;;;;;;9.73;7.00;;;12.20;99.90;;;;;;4971981;28;20045;-57
2022/09/16 05:39:16;;;;;;;8.40;7.40;;;12.10;99.90;;;;;;4977153;28;20877;-57
2022/09/16 05:41:57;;;;;;;8.30;6.55;;;12.10;99.90;;;;;;4972501;28;20044;-57
2022/09/16 05:44:25;;;;;;;10.00;7.75;;;12.10;99.90;;;;;;4976010;28;20549;-56
2022/09/16 05:46:52;;;;;;;8.65;7.68;;;12.10;99.90;;;;;;4977112;28;20037;-56
2022/09/16 05:49:20;;;;;;;9.45;6.85;;;12.10;99.90;;;;;;4978803;28;20044;-56
2022/09/16 05:51:49;;;;;;;14.38;7.55;;;12.10;99.90;;;;;;4979562;28;20029;-55
2022/09/16 05:54:17;;;;;;;9.45;8.18;;;12.10;99.90;;;;;;4961527;28;21128;-55
2022/09/16 05:56:45;;;;;;;11.55;8.98;;;12.10;99.90;;;;;;4965621;28;20063;-57
2022/09/16 05:59:13;;;;;;;10.80;8.00;;;12.10;99.90;;;;;;4979343;28;20041;-55
2022/09/16 06:01:40;;;;;;;8.23;7.28;;;12.10;99.90;;;;;;4979263;28;20237;-56
2022/09/16 06:04:11;;;;;;;8.60;7.13;;;12.10;99.90;;;;;;4963341;28;20590;-56
2022/09/16 06:06:43;;;;;;;9.00;7.70;;;12.20;99.90;;;;;;4977088;28;20845;-56
2022/09/16 06:09:19;;;;;;;6.20;5.55;;;12.20;99.90;;;;;;4973051;28;20546;-56
2022/09/16 06:11:48;;;;;;;7.68;6.30;;;12.30;99.90;;;;;;4971312;28;20713;-57
2022/09/16 06:14:17;;;;;;;8.02;6.93;;;12.30;99.90;;;;;;4973677;28;20359;-56
2022/09/16 06:16:45;;;;;;;9.68;6.60;;;12.40;99.90;;;;;;4979547;28;20029;-56
2022/09/16 06:19:16;;;;;;;9.63;7.72;;;12.50;99.90;;;;;;4980281;28;20033;-56
2022/09/16 06:21:44;;;;;;;15.18;8.57;;;12.60;99.90;;;;;;4973940;28;20429;-56
2022/09/16 06:24:13;;;;;;;16.88;9.23;;;12.80;99.90;;;;;;4982734;28;20041;-56
2022/09/16 06:26:42;;;;;;;13.68;8.77;;;12.90;99.90;;;;;;4983666;28;20045;-56
2022/09/16 06:29:10;;;;;;;10.23;8.88;;;13.00;99.90;;;;;;4979273;28;20052;-55
2022/09/16 06:31:37;;;;;;;9.90;8.07;;;13.10;99.90;;;;;;4981694;28;20384;-59
2022/09/16 06:34:06;;;;;;;9.73;7.00;;;13.30;99.90;;;;;;4974486;28;20055;-57
2022/09/16 06:36:35;;;;;;;11.23;7.85;;;13.50;99.90;;;;;;4976450;28;20068;-56
2022/09/16 06:39:06;;;;;;;9.50;7.72;;;13.80;99.90;;;;;;4993777;28;20616;-57
2022/09/16 06:41:33;;;;;;;9.18;6.88;;;14.10;99.90;;;;;;4974862;28;20034;-55
2022/09/16 06:44:01;;;;;;;7.68;6.13;;;14.40;99.90;;;;;;4979184;28;20060;-56
2022/09/16 06:46:28;;;;;;;6.10;5.00;;;14.70;99.90;;;;;;4974121;28;20041;-54
2022/09/16 06:48:57;;;;;;;5.03;4.43;;;14.80;99.90;;;;;;4968300;28;20037;-55
2022/09/16 06:51:30;;;;;;;7.65;6.85;;;14.70;99.90;;;;;;4969266;28;20050;-53
2022/09/16 06:54:03;;;;;;;5.90;5.13;;;14.80;99.90;;;;;;4978513;28;20138;-54
2022/09/16 06:56:32;;;;;;;8.13;5.28;;;14.80;99.90;;;;;;4973531;28;20050;-53
2022/09/16 06:59:00;;;;;;;8.25;5.78;;;14.90;99.90;;;;;;4976481;28;20118;-53
2022/09/16 07:01:28;;;;;;;8.38;5.88;;;15.00;99.90;;;;;;4967573;28;20048;-53
2022/09/16 07:03:57;;;;;;;7.80;4.95;;;15.00;99.90;;;;;;4970468;28;20404;-55
2022/09/16 07:06:28;;;;;;;7.28;5.72;;;15.10;99.90;;;;;;4981655;28;20049;-59
2022/09/16 07:09:15;;;;;;;8.35;5.88;;;15.10;99.90;;;;;;4977234;28;20099;-53
2022/09/16 07:11:42;;;;;;;6.45;4.90;;;15.20;99.90;;;;;;4977296;28;20044;-53
2022/09/16 07:14:09;;;;;;;7.38;5.85;;;15.20;99.90;;;;;;4981175;28;20059;-54
2022/09/16 07:16:36;;;;;;;13.88;5.72;;;15.20;99.90;;;;;;4975399;28;20192;-53
2022/09/16 07:19:04;;;;;;;6.78;5.68;;;15.20;99.90;;;;;;4980204;28;20554;-53
2022/09/16 07:21:31;;;;;;;7.50;5.15;;;15.20;99.90;;;;;;4975260;28;20156;-54
2022/09/16 07:24:00;;;;;;;6.70;4.35;;;15.20;99.90;;;;;;4974272;28;20126;-54
2022/09/16 07:26:29;;;;;;;8.60;5.70;;;15.20;99.90;;;;;;4968545;28;20053;-67
2022/09/16 07:28:59;;;;;;;8.80;5.32;;;15.10;99.90;;;;;;4975469;28;20033;-60
2022/09/16 07:31:29;;;;;;;10.82;5.82;;;15.00;99.90;;;;;;4988167;28;20427;-59
2022/09/16 07:33:57;;;;;;;9.73;7.40;;;15.00;99.90;;;;;;4973325;28;20885;-55
2022/09/16 07:36:35;;;;;;;8.13;5.07;;;14.90;99.90;;;;;;4973931;28;20037;-55
2022/09/16 07:39:03;;;;;;;8.27;5.65;;;14.80;99.90;;;;;;4964441;28;20140;-56
2022/09/16 07:41:36;;;;;;;9.57;5.05;;;14.70;99.90;;;;;;4979709;28;20048;-56
2022/09/16 07:44:06;;;;;;;6.28;4.80;;;14.80;99.90;;;;;;4978276;28;20110;-55
2022/09/16 07:46:35;;;;;;;7.38;5.50;;;14.70;99.90;;;;;;4974806;28;20272;-54
2022/09/16 07:49:05;;;;;;;7.97;5.68;;;14.70;99.90;;;;;;4977709;28;20045;-54
2022/09/16 07:51:32;;;;;;;8.32;5.45;;;14.70;99.90;;;;;;4972607;28;20044;-55
2022/09/16 07:54:03;;;;;;;9.40;5.90;;;14.70;99.90;;;;;;4969899;28;20144;-54
2022/09/16 07:56:33;;;;;;;6.60;5.35;;;14.70;99.90;;;;;;4975176;28;20041;-54
2022/09/16 07:59:02;;;;;;;8.27;6.07;;;14.80;99.90;;;;;;4975487;28;20045;-53
2022/09/16 08:01:30;;;;;;;6.75;5.22;;;14.80;99.90;;;;;;4979984;28;21009;-53
2022/09/16 08:03:58;;;;;;;7.07;5.15;;;14.90;99.90;;;;;;4972124;28;20859;-54
2022/09/16 08:06:28;;;;;;;8.93;6.93;;;14.90;99.90;;;;;;4968338;28;20042;-56
2022/09/16 08:08:58;;;;;;;10.48;4.78;;;14.90;99.90;;;;;;4986528;28;20041;-55
2022/09/16 08:11:45;;;;;;;6.82;5.25;;;14.90;99.90;;;;;;4978457;28;20508;-55
2022/09/16 08:14:12;;;;;;;11.02;5.10;;;14.90;99.90;;;;;;4937296;28;1285655;-54
2022/09/16 08:16:39;;;;;;;11.95;5.93;;;15.00;99.90;;;;;;4975742;28;20434;-55
2022/09/16 08:19:08;;;;;;;10.43;5.25;;;15.00;99.90;;;;;;4978310;28;20892;-57
2022/09/16 08:21:35;;;;;;;13.32;6.75;;;15.00;99.90;;;;;;4973105;28;20048;-62
2022/09/16 08:24:03;;;;;;;9.18;5.45;;;15.10;99.90;;;;;;4974312;28;20037;-61
2022/09/16 08:26:31;;;;;;;9.32;4.85;;;15.10;99.90;;;;;;4972197;28;20049;-57
2022/09/16 08:28:58;;;;;;;8.38;4.55;;;15.10;99.90;;;;;;4972775;28;20849;-57
2022/09/16 08:31:37;;;;;;;7.28;4.57;;;15.10;99.90;;;;;;4984027;28;20879;-58
2022/09/16 08:36:18;;;;;;;11.68;4.57;;;15.20;99.90;;;;;;5044806;27;20107;-55
2022/09/16 08:38:48;;;;;;;8.65;5.28;;;15.20;99.90;;;;;;5027273;28;20264;-55
2022/09/16 08:41:29;;;;;;;10.65;6.75;;;15.30;99.90;;;;;;5069941;27;20331;-54
2022/09/16 08:44:05;;;;;;;7.97;5.63;;;15.40;99.90;;;;;;5005017;28;20045;-54
2022/09/16 08:46:44;;;;;;;7.07;4.80;;;15.50;99.90;;;;;;5008685;28;20269;-58
2022/09/16 08:49:45;;;;;;;5.85;4.97;;;15.60;99.90;;;;;;5029033;28;20066;-55
2022/09/16 08:52:34;;;;;;;9.95;4.32;;;15.70;99.90;;;;;;4981775;28;20053;-55
2022/09/16 08:55:04;;;;;;;8.93;5.10;;;15.90;99.90;;;;;;4986871;28;20075;-56
2022/09/16 08:57:37;;;;;;;5.70;4.10;;;16.00;99.90;;;;;;5009900;28;20055;-53
2022/09/16 09:00:16;;;;;;;8.05;4.88;;;16.00;99.90;;;;;;4995968;28;20039;-54
2022/09/16 09:03:19;;;;;;;10.55;5.22;;;16.10;99.90;;;;;;4984292;28;20052;-55
2022/09/16 09:05:53;;;;;;;18.25;5.57;;;16.20;99.90;;;;;;4985447;28;20555;-54
2022/09/16 09:08:50;;;;;;;7.90;5.30;;;16.30;99.90;;;;;;5024469;28;20047;-54
2022/09/16 09:11:58;;;;;;;8.18;5.57;;;16.30;99.90;;;;;;5013840;28;20581;-55
2022/09/16 09:14:52;;;;;;;6.57;5.88;;;16.20;99.90;;;;;;4993260;28;20687;-54
2022/09/16 09:17:45;;;;;;;6.68;5.32;;;16.20;99.90;;;;;;4975440;28;20620;-54
2022/09/16 09:20:45;;;;;;;9.25;6.38;;;16.20;99.90;;;;;;5011711;28;20316;-56
2022/09/16 09:23:17;;;;;;;;;;;16.10;99.90;;;;;;4989771;28;20935;-58
2022/09/16 09:26:05;;;;;;;10.60;5.60;;;16.10;99.90;;;;;;4992465;28;20437;-57
2022/09/16 09:28:39;;;;;;;;;;;16.10;99.90;;;;;;5028249;28;20673;-54
2022/09/16 09:31:17;;;;;;;6.00;4.85;;;16.10;99.90;;;;;;4997027;28;20571;-52
2022/09/16 09:33:58;;;;;;;11.13;5.72;;;16.30;99.90;;;;;;4988261;28;20037;-53
2022/09/16 09:37:00;;;;;;;12.32;5.93;;;16.60;99.90;;;;;;5008929;28;20338;-53
2022/09/16 09:39:36;;;;;;;8.93;5.25;;;16.80;99.90;;;;;;5006971;28;20037;-55
2022/09/16 09:42:15;;;;;;;9.50;5.50;;;17.10;99.90;;;;;;4998218;28;20047;-55
2022/09/16 09:45:14;;;;;;;8.27;5.07;;;17.40;99.90;;;;;;5007762;28;20805;-54
2022/09/16 09:48:02;;;;;;;10.85;5.32;;;17.50;99.90;;;;;;4978721;28;20155;-55
2022/09/16 09:50:40;;;;;;;8.77;4.88;;;17.70;99.90;;;;;;4984109;28;20733;-53
2022/09/16 09:53:48;;;;;;;8.95;5.53;;;17.80;99.90;;;;;;4990824;28;20045;-53
2022/09/16 09:56:26;;;;;;;7.82;5.03;;;17.80;99.90;;;;;;4959613;28;20049;-55
2022/09/16 09:59:22;;;;;;;9.05;5.25;;;17.70;99.90;;;;;;4999055;28;20033;-54
2022/09/16 10:01:55;;;;;;;5.95;4.60;;;17.70;99.90;;;;;;4980817;28;20290;-54
2022/09/16 10:04:24;;;;;;;5.80;4.72;;;17.60;99.90;;;;;;5015456;28;20047;-56
2022/09/16 10:06:54;;;;;;;5.18;3.97;;;17.60;99.90;;;;;;5000868;28;20106;-56
2022/09/16 10:09:25;;;;;;;9.05;4.47;;;17.70;99.90;;;;;;4988023;28;20041;-55
2022/09/16 10:11:59;;;;;;;14.57;4.82;;;17.70;99.90;;;;;;4995288;28;20115;-57
2022/09/16 10:14:37;;;;;;;5.82;4.13;;;17.60;99.90;;;;;;4990912;28;20183;-57
2022/09/16 10:17:24;;;;;;;8.00;4.88;;;17.50;99.90;;;;;;5013502;28;20832;-58
2022/09/16 10:20:29;;;;;;;6.18;4.55;;;17.40;99.90;;;;;;5009137;28;20045;-58
2022/09/16 10:23:20;;;;;;;9.30;5.63;;;17.20;99.90;;;;;;4982431;28;20365;-56
2022/09/16 10:26:15;;;;;;;8.23;5.32;;;17.00;99.90;;;;;;5002489;28;20135;-56
2022/09/16 10:28:59;;;;;;;8.95;5.28;;;16.80;99.90;;;;;;4989703;28;20905;-57
2022/09/16 10:31:40;;;;;;;5.88;4.68;;;16.60;99.90;;;;;;4960861;28;20258;-57
2022/09/16 10:34:28;;;;;;;7.65;5.07;;;16.50;99.90;;;;;;4980405;28;20118;-56
2022/09/16 10:37:12;;;;;;;8.00;4.80;;;16.40;99.90;;;;;;4977450;28;20048;-57
2022/09/16 10:39:44;;;;;;;7.40;4.28;;;16.70;99.90;;;;;;4982230;28;20045;-57
2022/09/16 10:42:19;;;;;;;7.50;4.50;;;17.00;99.90;;;;;;4966257;28;20028;-58
2022/09/16 10:44:51;;;;;;;10.98;6.03;;;17.40;99.90;;;;;;5008873;28;20044;-57
2022/09/16 10:47:29;;;;;;;10.43;3.83;;;17.90;99.90;;;;;;4984336;28;20069;-55
2022/09/16 10:50:02;;;;;;;6.78;4.15;;;18.30;99.90;;;;;;4970756;28;20865;-54
2022/09/16 10:52:40;;;;;;;6.88;3.65;;;18.50;99.90;;;;;;4986607;28;20063;-53
2022/09/16 10:55:36;;;;;;;6.22;3.60;;;18.60;99.90;;;;;;4993166;28;20045;-54
2022/09/16 10:58:16;;;;;;;8.90;3.70;;;18.80;99.90;;;;;;4973333;28;20052;-55
2022/09/16 11:01:14;;;;;;;5.57;3.75;;;18.90;99.90;;;;;;4995540;28;20986;-54
2022/09/16 11:03:48;;;;;;;6.10;4.05;;;19.00;99.90;;;;;;4978067;28;20750;-54
2022/09/16 11:06:35;;;;;;;8.57;3.60;;;19.00;99.90;;;;;;4997091;28;20049;-54
2022/09/16 11:09:31;;;;;;;7.00;4.03;;;18.90;99.90;;;;;;4987179;28;20865;-56
2022/09/16 11:12:26;;;;;;;9.43;4.78;;;18.60;99.90;;;;;;5002816;28;20361;-55
2022/09/16 11:15:11;;;;;;;11.60;4.20;;;18.30;99.90;;;;;;4981335;28;20102;-58
2022/09/16 11:17:48;;;;;;;12.25;5.03;;;18.00;99.90;;;;;;4976602;28;20406;-56
2022/09/16 11:20:22;;;;;;;13.38;6.72;;;17.60;99.90;;;;;;4999105;28;20919;-52
2022/09/16 11:23:13;;;;;;;11.52;7.70;;;17.20;99.90;;;;;;4988023;28;20075;-54
2022/09/16 11:26:09;;;;;;;8.23;5.85;;;16.60;99.90;;;;;;4991715;28;20105;-55
2022/09/16 11:28:41;;;;;;;8.55;6.97;;;16.00;99.90;;;;;;4975217;28;20568;-56
2022/09/16 11:31:21;;;;;;;11.57;6.43;;;15.60;99.90;;;;;;4994153;28;20045;-55
2022/09/16 11:34:09;;;;;;;9.68;7.00;;;15.20;99.90;;;;;;4995169;28;20260;-57
2022/09/16 11:37:25;;;;;;;19.98;7.20;;;14.90;99.90;;;;;;4993611;28;20043;-56
2022/09/16 11:40:24;;;;;;;11.68;7.97;;;14.50;99.90;;;;;;4973737;28;20889;-56
2022/09/16 11:43:20;;;;;;;13.65;7.75;;;14.30;99.90;;;;;;4976921;28;20037;-56
2022/09/16 11:45:55;;;;;;;12.75;7.22;;;14.10;99.90;;;;;;4988640;28;20048;-57
2022/09/16 11:48:54;;;;;;;10.07;8.02;;;14.00;99.90;;;;;;4993716;28;20052;-57
2022/09/16 11:51:31;;;;;;;11.80;7.60;;;13.90;99.90;;;;;;4990561;28;20754;-56
2022/09/16 11:54:07;;;;;;;14.33;8.30;;;13.80;99.90;;;;;;4991761;28;20215;-56
2022/09/16 11:56:48;;;;;;;9.90;7.35;;;13.70;99.90;;;;;;4997369;28;20048;-56
2022/09/16 11:59:41;;;;;;;11.40;7.35;;;13.60;99.90;;;;;;4978996;28;20045;-56
2022/09/16 12:02:26;;;;;;;17.27;9.57;;;13.50;99.90;;;;;;4995930;28;20404;-57
2022/09/16 12:05:02;;;;;;;14.05;8.73;;;13.50;99.90;;;;;;4971992;28;20535;-56
2022/09/16 12:07:47;;;;;;;17.52;9.20;;;13.50;99.90;;;;;;4998592;28;20033;-56
2022/09/16 12:10:23;;;;;;;13.02;8.77;;;13.50;99.90;;;;;;4996575;28;20067;-56
2022/09/16 12:13:08;;;;;;;15.55;10.57;;;13.50;99.90;;;;;;4992777;28;20032;-56
2022/09/16 12:15:49;;;;;;;19.83;14.43;;;13.50;99.90;;;;;;4967754;28;20036;-55
2022/09/16 12:18:16;;;;;;;22.10;12.15;;;13.50;99.90;;;;;;4997519;28;20171;-55
2022/09/16 12:20:55;;;;;;;21.95;11.90;;;13.50;99.90;;;;;;4970447;28;20040;-57
2022/09/16 12:23:33;;;;;;;13.45;10.02;;;13.50;99.90;;;;;;4992188;28;20529;-55
2022/09/16 12:26:38;;;;;;;13.20;10.63;;;13.50;99.90;;;;;;4977086;28;20048;-57
2022/09/16 12:29:17;;;;;;;13.63;11.25;;;13.50;99.90;;;;;;4978013;28;20218;-56
2022/09/16 12:32:16;;;;;;;12.27;9.63;;;13.40;99.90;;;;;;5010652;28;20214;-57
2022/09/16 12:34:50;;;;;;;15.63;8.52;;;13.40;99.90;;;;;;4987516;28;20049;-57
2022/09/16 12:37:57;;;;;;;12.88;10.20;;;13.40;99.90;;;;;;4980929;28;20142;-55
2022/09/16 12:41:20;;;;;;;14.90;10.57;;;13.40;99.90;;;;;;4990995;28;20048;-56
2022/09/16 12:44:21;;;;;;;18.27;10.65;;;13.40;99.90;;;;;;4939382;28;20060;-56
2022/09/16 12:47:35;;;;;;;14.50;10.38;;;13.40;99.90;;;;;;5007709;28;20262;-57
2022/09/16 12:50:34;;;;;;;15.95;11.27;;;13.40;99.90;;;;;;4970681;28;20585;-56
2022/09/16 12:53:06;;;;;;;15.13;11.05;;;13.40;99.90;;;;;;4990127;28;20060;-57
2022/09/16 12:55:40;;;;;;;18.33;11.68;;;13.40;99.90;;;;;;4954756;28;20574;-55
2022/09/16 12:58:28;;;;;;;15.52;10.32;;;13.40;99.90;;;;;;4993935;28;20770;-54
2022/09/16 13:01:13;;;;;;;14.38;9.50;;;13.40;99.90;;;;;;4971496;28;20318;-54
2022/09/16 13:03:49;;;;;;;12.98;10.20;;;13.40;99.90;;;;;;4993465;28;20044;-54
2022/09/16 13:06:35;;;;;;;12.35;9.73;;;13.50;99.90;;;;;;4971890;28;20048;-55
2022/09/16 13:09:22;;;;;;;10.80;9.25;;;13.50;99.90;;;;;;5000165;28;20488;-57
2022/09/16 13:11:59;;;;;;;12.75;9.93;;;13.50;99.90;;;;;;4974294;28;20368;-56
2022/09/16 13:14:50;;;;;;;12.30;8.82;;;13.60;99.90;;;;;;4994981;28;20048;-56
2022/09/16 13:17:28;;;;;;;12.50;10.23;;;13.60;99.90;;;;;;4980685;28;20346;-57
2022/09/16 13:19:59;;;;;;;;;;;13.60;99.90;;;;;;4991234;28;20048;-56
2022/09/16 13:22:39;;;;;;;15.77;12.20;;;13.60;99.90;;;;;;4993543;28;20400;-57
2022/09/16 13:25:09;;;;;;;12.52;9.77;;;13.60;99.90;;;;;;4959067;28;20110;-56
2022/09/16 13:27:38;;;;;;;11.40;10.20;;;13.70;99.90;;;;;;4981179;28;20799;-56
2022/09/16 13:30:13;;;;;;;6.93;6.25;;;13.70;99.90;;;;;;4996285;28;20612;-55
2022/09/16 13:33:19;;;;;;;5.88;5.13;;;13.70;99.90;;;;;;4983420;28;20055;-56
2022/09/16 13:36:12;;;;;;;4.80;4.28;;;13.60;99.90;;;;;;5001281;28;20045;-56